sensor_id;sensor_type;location;lat;lon;timestamp;temperature;humidity
27940;DHT22;15275;51.716;14.324;2023-03-04T00:01:54;5.90;79.10
27940;DHT22;15275;51.716;14.324;2023-03-04T00:04:19;5.90;79.10
27940;DHT22;15275;51.716;14.324;2023-03-04T00:06:45;5.90;79.20
27940;DHT22;15275;51.716;14.324;2023-03-04T00:09:11;5.90;79.30
27940;DHT22;15275;51.716;14.324;2023-03-04T00:11:37;5.90;79.50
27940;DHT22;15275;51.716;14.324;2023-03-04T00:14:03;5.90;78.90
27940;DHT22;15275;51.716;14.324;2023-03-04T00:16:28;5.90;79.00
27940;DHT22;15275;51.716;14.324;2023-03-04T00:18:55;5.90;78.70
27940;DHT22;15275;51.716;14.324;2023-03-04T00:21:22;5.90;79.00
27940;DHT22;15275;51.716;14.324;2023-03-04T00:23:48;5.90;79.00
27940;DHT22;15275;51.716;14.324;2023-03-04T00:26:15;5.90;78.90
27940;DHT22;15275;51.716;14.324;2023-03-04T00:28:41;5.90;78.70
27940;DHT22;15275;51.716;14.324;2023-03-04T00:31:08;5.90;78.80
27940;DHT22;15275;51.716;14.324;2023-03-04T00:33:34;5.90;78.80
27940;DHT22;15275;51.716;14.324;2023-03-04T00:36:02;5.90;79.00
27940;DHT22;15275;51.716;14.324;2023-03-04T00:38:28;5.90;78.90
27940;DHT22;15275;51.716;14.324;2023-03-04T00:40:54;5.90;79.00
27940;DHT22;15275;51.716;14.324;2023-03-04T00:43:21;6.00;79.00
27940;DHT22;15275;51.716;14.324;2023-03-04T00:45:46;5.90;79.00
27940;DHT22;15275;51.716;14.324;2023-03-04T00:48:12;5.90;78.90
27940;DHT22;15275;51.716;14.324;2023-03-04T00:50:39;6.00;79.10
27940;DHT22;15275;51.716;14.324;2023-03-04T00:53:05;6.00;79.00
27940;DHT22;15275;51.716;14.324;2023-03-04T00:55:31;6.00;78.90
27940;DHT22;15275;51.716;14.324;2023-03-04T00:57:56;5.90;78.90
27940;DHT22;15275;51.716;14.324;2023-03-04T01:00:22;5.90;79.00
27940;DHT22;15275;51.716;14.324;2023-03-04T01:02:48;5.90;79.00
27940;DHT22;15275;51.716;14.324;2023-03-04T01:05:14;6.00;78.90
27940;DHT22;15275;51.716;14.324;2023-03-04T01:07:40;6.00;79.00
27940;DHT22;15275;51.716;14.324;2023-03-04T01:10:07;6.00;78.90
27940;DHT22;15275;51.716;14.324;2023-03-04T01:12:34;6.00;78.80
27940;DHT22;15275;51.716;14.324;2023-03-04T01:15:00;6.00;78.80
27940;DHT22;15275;51.716;14.324;2023-03-04T01:17:26;6.00;78.50
27940;DHT22;15275;51.716;14.324;2023-03-04T01:19:52;6.00;79.00
27940;DHT22;15275;51.716;14.324;2023-03-04T01:22:18;6.00;78.60
27940;DHT22;15275;51.716;14.324;2023-03-04T01:24:44;6.00;78.50
27940;DHT22;15275;51.716;14.324;2023-03-04T01:27:11;6.00;78.50
27940;DHT22;15275;51.716;14.324;2023-03-04T01:29:36;6.00;78.50
27940;DHT22;15275;51.716;14.324;2023-03-04T01:32:02;6.10;78.50
27940;DHT22;15275;51.716;14.324;2023-03-04T01:34:28;6.10;78.10
27940;DHT22;15275;51.716;14.324;2023-03-04T01:36:55;6.10;78.20
27940;DHT22;15275;51.716;14.324;2023-03-04T01:39:20;6.10;78.50
27940;DHT22;15275;51.716;14.324;2023-03-04T01:41:46;6.10;78.40
27940;DHT22;15275;51.716;14.324;2023-03-04T01:44:13;6.10;78.20
27940;DHT22;15275;51.716;14.324;2023-03-04T01:46:41;6.10;78.50
27940;DHT22;15275;51.716;14.324;2023-03-04T01:49:12;6.10;78.40
27940;DHT22;15275;51.716;14.324;2023-03-04T01:51:46;6.10;78.10
27940;DHT22;15275;51.716;14.324;2023-03-04T01:54:15;6.10;78.10
27940;DHT22;15275;51.716;14.324;2023-03-04T01:56:44;6.10;78.10
27940;DHT22;15275;51.716;14.324;2023-03-04T01:59:20;6.10;77.90
27940;DHT22;15275;51.716;14.324;2023-03-04T02:01:52;6.10;78.10
27940;DHT22;15275;51.716;14.324;2023-03-04T02:04:25;6.10;78.10
27940;DHT22;15275;51.716;14.324;2023-03-04T02:06:57;6.10;78.40
27940;DHT22;15275;51.716;14.324;2023-03-04T02:09:23;6.10;78.20
27940;DHT22;15275;51.716;14.324;2023-03-04T02:11:50;6.10;78.40
27940;DHT22;15275;51.716;14.324;2023-03-04T02:14:17;6.20;78.40
27940;DHT22;15275;51.716;14.324;2023-03-04T02:16:44;6.20;78.40
27940;DHT22;15275;51.716;14.324;2023-03-04T02:22:15;6.20;78.10
27940;DHT22;15275;51.716;14.324;2023-03-04T02:27:14;6.20;78.40
27940;DHT22;15275;51.716;14.324;2023-03-04T02:29:40;6.20;78.40
27940;DHT22;15275;51.716;14.324;2023-03-04T02:32:08;6.20;78.30
27940;DHT22;15275;51.716;14.324;2023-03-04T02:34:35;6.20;78.40
27940;DHT22;15275;51.716;14.324;2023-03-04T02:37:02;6.20;78.40
27940;DHT22;15275;51.716;14.324;2023-03-04T02:40:01;6.20;78.50
27940;DHT22;15275;51.716;14.324;2023-03-04T02:42:20;6.20;78.60
27940;DHT22;15275;51.716;14.324;2023-03-04T02:44:46;6.20;78.60
27940;DHT22;15275;51.716;14.324;2023-03-04T02:47:16;6.20;78.60
27940;DHT22;15275;51.716;14.324;2023-03-04T02:49:43;6.20;78.50
27940;DHT22;15275;51.716;14.324;2023-03-04T02:52:11;6.20;78.60
27940;DHT22;15275;51.716;14.324;2023-03-04T02:54:39;6.20;78.30
27940;DHT22;15275;51.716;14.324;2023-03-04T02:57:08;6.20;78.50
27940;DHT22;15275;51.716;14.324;2023-03-04T02:59:36;6.20;78.50
27940;DHT22;15275;51.716;14.324;2023-03-04T03:02:03;6.20;78.40
27940;DHT22;15275;51.716;14.324;2023-03-04T03:04:29;6.20;78.70
27940;DHT22;15275;51.716;14.324;2023-03-04T03:06:55;6.20;78.70
27940;DHT22;15275;51.716;14.324;2023-03-04T03:09:21;6.20;78.30
27940;DHT22;15275;51.716;14.324;2023-03-04T03:11:48;6.20;78.60
27940;DHT22;15275;51.716;14.324;2023-03-04T03:14:13;6.20;78.30
27940;DHT22;15275;51.716;14.324;2023-03-04T03:16:39;6.20;78.30
27940;DHT22;15275;51.716;14.324;2023-03-04T03:19:05;6.20;78.50
27940;DHT22;15275;51.716;14.324;2023-03-04T03:21:31;6.20;78.40
27940;DHT22;15275;51.716;14.324;2023-03-04T03:23:58;6.20;78.50
27940;DHT22;15275;51.716;14.324;2023-03-04T03:26:23;6.20;78.40
27940;DHT22;15275;51.716;14.324;2023-03-04T03:28:49;6.20;78.20
27940;DHT22;15275;51.716;14.324;2023-03-04T03:31:15;6.20;78.50
27940;DHT22;15275;51.716;14.324;2023-03-04T03:33:41;6.20;78.50
27940;DHT22;15275;51.716;14.324;2023-03-04T03:36:07;6.20;78.10
27940;DHT22;15275;51.716;14.324;2023-03-04T03:38:33;6.10;78.50
27940;DHT22;15275;51.716;14.324;2023-03-04T03:40:59;6.20;78.50
27940;DHT22;15275;51.716;14.324;2023-03-04T03:43:25;6.10;78.20
27940;DHT22;15275;51.716;14.324;2023-03-04T03:45:51;6.10;78.00
27940;DHT22;15275;51.716;14.324;2023-03-04T03:48:17;6.10;78.40
27940;DHT22;15275;51.716;14.324;2023-03-04T03:50:43;6.10;78.20
27940;DHT22;15275;51.716;14.324;2023-03-04T03:53:10;6.10;78.40
27940;DHT22;15275;51.716;14.324;2023-03-04T03:55:36;6.10;78.00
27940;DHT22;15275;51.716;14.324;2023-03-04T03:58:03;6.10;78.40
27940;DHT22;15275;51.716;14.324;2023-03-04T04:00:29;6.10;78.10
27940;DHT22;15275;51.716;14.324;2023-03-04T04:02:57;6.10;78.20
27940;DHT22;15275;51.716;14.324;2023-03-04T04:05:24;6.10;78.20
27940;DHT22;15275;51.716;14.324;2023-03-04T04:07:49;6.10;78.20
27940;DHT22;15275;51.716;14.324;2023-03-04T04:10:15;6.10;77.90
27940;DHT22;15275;51.716;14.324;2023-03-04T04:12:41;6.10;78.40
27940;DHT22;15275;51.716;14.324;2023-03-04T04:15:10;6.10;78.10
27940;DHT22;15275;51.716;14.324;2023-03-04T04:17:37;6.10;78.00
27940;DHT22;15275;51.716;14.324;2023-03-04T04:20:05;6.10;78.10
27940;DHT22;15275;51.716;14.324;2023-03-04T04:22:31;6.10;78.10
27940;DHT22;15275;51.716;14.324;2023-03-04T04:24:57;6.10;78.20
27940;DHT22;15275;51.716;14.324;2023-03-04T04:27:23;6.10;77.80
27940;DHT22;15275;51.716;14.324;2023-03-04T04:29:49;6.10;78.10
27940;DHT22;15275;51.716;14.324;2023-03-04T04:32:15;6.20;78.00
27940;DHT22;15275;51.716;14.324;2023-03-04T04:34:41;6.10;78.00
27940;DHT22;15275;51.716;14.324;2023-03-04T04:37:06;6.20;78.00
27940;DHT22;15275;51.716;14.324;2023-03-04T04:39:32;6.20;78.20
27940;DHT22;15275;51.716;14.324;2023-03-04T04:41:58;6.20;78.20
27940;DHT22;15275;51.716;14.324;2023-03-04T04:44:24;6.20;78.00
27940;DHT22;15275;51.716;14.324;2023-03-04T04:46:50;6.20;78.10
27940;DHT22;15275;51.716;14.324;2023-03-04T04:49:15;6.20;78.00
27940;DHT22;15275;51.716;14.324;2023-03-04T04:51:41;6.20;78.10
27940;DHT22;15275;51.716;14.324;2023-03-04T04:54:07;6.20;78.20
27940;DHT22;15275;51.716;14.324;2023-03-04T04:56:34;6.20;78.20
27940;DHT22;15275;51.716;14.324;2023-03-04T04:59:03;6.20;78.30
27940;DHT22;15275;51.716;14.324;2023-03-04T05:01:29;6.20;78.30
27940;DHT22;15275;51.716;14.324;2023-03-04T05:03:55;6.20;78.20
27940;DHT22;15275;51.716;14.324;2023-03-04T05:06:22;6.20;78.40
27940;DHT22;15275;51.716;14.324;2023-03-04T05:08:49;6.20;78.60
27940;DHT22;15275;51.716;14.324;2023-03-04T05:11:15;6.20;78.50
27940;DHT22;15275;51.716;14.324;2023-03-04T05:13:41;6.20;78.60
27940;DHT22;15275;51.716;14.324;2023-03-04T05:16:08;6.20;78.70
27940;DHT22;15275;51.716;14.324;2023-03-04T05:18:34;6.20;78.60
27940;DHT22;15275;51.716;14.324;2023-03-04T05:21:01;6.20;78.70
27940;DHT22;15275;51.716;14.324;2023-03-04T05:23:30;6.20;78.80
27940;DHT22;15275;51.716;14.324;2023-03-04T05:25:58;6.20;78.70
27940;DHT22;15275;51.716;14.324;2023-03-04T05:28:24;6.20;78.60
27940;DHT22;15275;51.716;14.324;2023-03-04T05:30:50;6.20;78.80
27940;DHT22;15275;51.716;14.324;2023-03-04T05:33:17;6.20;78.80
27940;DHT22;15275;51.716;14.324;2023-03-04T05:35:45;6.20;78.80
27940;DHT22;15275;51.716;14.324;2023-03-04T05:38:14;6.20;78.90
27940;DHT22;15275;51.716;14.324;2023-03-04T05:40:42;6.30;79.20
27940;DHT22;15275;51.716;14.324;2023-03-04T05:43:09;6.20;79.10
27940;DHT22;15275;51.716;14.324;2023-03-04T05:45:35;6.20;79.10
27940;DHT22;15275;51.716;14.324;2023-03-04T05:48:03;6.30;79.30
27940;DHT22;15275;51.716;14.324;2023-03-04T05:50:29;6.30;79.30
27940;DHT22;15275;51.716;14.324;2023-03-04T05:52:55;6.30;79.30
27940;DHT22;15275;51.716;14.324;2023-03-04T05:55:21;6.30;79.50
27940;DHT22;15275;51.716;14.324;2023-03-04T05:57:47;6.30;79.60
27940;DHT22;15275;51.716;14.324;2023-03-04T06:00:13;6.30;79.50
27940;DHT22;15275;51.716;14.324;2023-03-04T06:02:41;6.20;79.50
27940;DHT22;15275;51.716;14.324;2023-03-04T06:05:11;6.30;79.60
27940;DHT22;15275;51.716;14.324;2023-03-04T06:07:38;6.30;79.70
27940;DHT22;15275;51.716;14.324;2023-03-04T06:10:05;6.20;79.70
27940;DHT22;15275;51.716;14.324;2023-03-04T06:12:31;6.30;79.80
27940;DHT22;15275;51.716;14.324;2023-03-04T06:14:57;6.30;79.80
27940;DHT22;15275;51.716;14.324;2023-03-04T06:17:23;6.30;79.80
27940;DHT22;15275;51.716;14.324;2023-03-04T06:19:49;6.30;79.70
27940;DHT22;15275;51.716;14.324;2023-03-04T06:22:15;6.30;79.80
27940;DHT22;15275;51.716;14.324;2023-03-04T06:24:40;6.30;79.90
27940;DHT22;15275;51.716;14.324;2023-03-04T06:27:06;6.30;79.90
27940;DHT22;15275;51.716;14.324;2023-03-04T06:29:32;6.30;80.00
27940;DHT22;15275;51.716;14.324;2023-03-04T06:31:58;6.30;80.00
27940;DHT22;15275;51.716;14.324;2023-03-04T06:34:24;6.30;80.00
27940;DHT22;15275;51.716;14.324;2023-03-04T06:36:50;6.30;79.90
27940;DHT22;15275;51.716;14.324;2023-03-04T06:39:16;6.30;80.00
27940;DHT22;15275;51.716;14.324;2023-03-04T06:41:42;6.30;80.00
27940;DHT22;15275;51.716;14.324;2023-03-04T06:44:08;6.30;80.00
27940;DHT22;15275;51.716;14.324;2023-03-04T06:46:34;6.30;80.10
27940;DHT22;15275;51.716;14.324;2023-03-04T06:49:00;6.30;80.20
27940;DHT22;15275;51.716;14.324;2023-03-04T06:51:27;6.30;80.30
27940;DHT22;15275;51.716;14.324;2023-03-04T06:53:54;6.40;80.30
27940;DHT22;15275;51.716;14.324;2023-03-04T06:56:19;6.40;80.40
27940;DHT22;15275;51.716;14.324;2023-03-04T06:58:46;6.40;80.40
27940;DHT22;15275;51.716;14.324;2023-03-04T07:01:17;6.40;80.40
27940;DHT22;15275;51.716;14.324;2023-03-04T07:03:49;6.40;80.40
27940;DHT22;15275;51.716;14.324;2023-03-04T07:06:18;6.50;80.30
27940;DHT22;15275;51.716;14.324;2023-03-04T07:08:46;6.50;80.30
27940;DHT22;15275;51.716;14.324;2023-03-04T07:11:12;6.50;80.30
27940;DHT22;15275;51.716;14.324;2023-03-04T07:13:38;6.50;80.20
27940;DHT22;15275;51.716;14.324;2023-03-04T07:16:06;6.60;80.30
27940;DHT22;15275;51.716;14.324;2023-03-04T07:18:34;6.60;80.20
27940;DHT22;15275;51.716;14.324;2023-03-04T07:21:00;6.60;80.20
27940;DHT22;15275;51.716;14.324;2023-03-04T07:23:26;6.60;80.30
27940;DHT22;15275;51.716;14.324;2023-03-04T07:25:52;6.60;80.30
27940;DHT22;15275;51.716;14.324;2023-03-04T07:28:18;6.70;80.40
27940;DHT22;15275;51.716;14.324;2023-03-04T07:30:44;6.70;80.20
27940;DHT22;15275;51.716;14.324;2023-03-04T07:33:10;6.70;80.50
27940;DHT22;15275;51.716;14.324;2023-03-04T07:35:36;6.70;80.40
27940;DHT22;15275;51.716;14.324;2023-03-04T07:38:02;6.80;80.50
27940;DHT22;15275;51.716;14.324;2023-03-04T07:40:28;6.80;80.40
27940;DHT22;15275;51.716;14.324;2023-03-04T07:42:54;6.80;80.50
27940;DHT22;15275;51.716;14.324;2023-03-04T07:45:22;6.80;80.70
27940;DHT22;15275;51.716;14.324;2023-03-04T07:47:48;6.90;80.60
27940;DHT22;15275;51.716;14.324;2023-03-04T07:50:15;6.90;80.60
27940;DHT22;15275;51.716;14.324;2023-03-04T07:52:43;6.90;80.70
27940;DHT22;15275;51.716;14.324;2023-03-04T07:55:12;6.90;80.70
27940;DHT22;15275;51.716;14.324;2023-03-04T07:57:40;7.00;80.80
27940;DHT22;15275;51.716;14.324;2023-03-04T08:00:09;7.00;80.80
27940;DHT22;15275;51.716;14.324;2023-03-04T08:02:36;7.00;80.80
27940;DHT22;15275;51.716;14.324;2023-03-04T08:05:02;7.00;80.90
27940;DHT22;15275;51.716;14.324;2023-03-04T08:07:28;7.10;80.60
27940;DHT22;15275;51.716;14.324;2023-03-04T08:09:54;7.10;80.60
27940;DHT22;15275;51.716;14.324;2023-03-04T08:12:20;7.10;80.80
27940;DHT22;15275;51.716;14.324;2023-03-04T08:14:49;7.10;80.80
27940;DHT22;15275;51.716;14.324;2023-03-04T08:17:15;7.10;81.00
27940;DHT22;15275;51.716;14.324;2023-03-04T08:19:41;7.20;81.00
27940;DHT22;15275;51.716;14.324;2023-03-04T08:22:07;7.20;81.00
27940;DHT22;15275;51.716;14.324;2023-03-04T08:24:32;7.20;81.00
27940;DHT22;15275;51.716;14.324;2023-03-04T08:26:58;7.20;81.00
27940;DHT22;15275;51.716;14.324;2023-03-04T08:29:25;7.20;81.10
27940;DHT22;15275;51.716;14.324;2023-03-04T08:31:53;7.30;81.20
27940;DHT22;15275;51.716;14.324;2023-03-04T08:34:21;7.30;81.20
27940;DHT22;15275;51.716;14.324;2023-03-04T08:36:49;7.30;81.20
27940;DHT22;15275;51.716;14.324;2023-03-04T08:39:16;7.30;81.20
27940;DHT22;15275;51.716;14.324;2023-03-04T08:41:44;7.30;81.40
27940;DHT22;15275;51.716;14.324;2023-03-04T08:44:10;7.30;81.50
27940;DHT22;15275;51.716;14.324;2023-03-04T08:46:37;7.40;81.60
27940;DHT22;15275;51.716;14.324;2023-03-04T08:49:04;7.40;81.80
27940;DHT22;15275;51.716;14.324;2023-03-04T08:51:31;7.50;82.30
27940;DHT22;15275;51.716;14.324;2023-03-04T08:53:57;7.50;82.30
27940;DHT22;15275;51.716;14.324;2023-03-04T08:56:23;7.60;82.40
27940;DHT22;15275;51.716;14.324;2023-03-04T08:58:49;7.70;82.50
27940;DHT22;15275;51.716;14.324;2023-03-04T09:01:15;7.80;82.30
27940;DHT22;15275;51.716;14.324;2023-03-04T09:03:41;7.90;82.20
27940;DHT22;15275;51.716;14.324;2023-03-04T09:06:09;7.90;82.30
27940;DHT22;15275;51.716;14.324;2023-03-04T09:08:38;8.00;82.10
27940;DHT22;15275;51.716;14.324;2023-03-04T09:11:04;8.10;81.80
27940;DHT22;15275;51.716;14.324;2023-03-04T09:13:31;8.10;81.60
27940;DHT22;15275;51.716;14.324;2023-03-04T09:15:57;8.10;81.60
27940;DHT22;15275;51.716;14.324;2023-03-04T09:18:24;8.10;81.50
27940;DHT22;15275;51.716;14.324;2023-03-04T09:20:50;8.10;81.60
27940;DHT22;15275;51.716;14.324;2023-03-04T09:23:16;8.10;81.50
27940;DHT22;15275;51.716;14.324;2023-03-04T09:25:44;8.10;81.50
27940;DHT22;15275;51.716;14.324;2023-03-04T09:28:12;8.10;81.30
27940;DHT22;15275;51.716;14.324;2023-03-04T09:30:38;8.10;81.60
27940;DHT22;15275;51.716;14.324;2023-03-04T09:33:04;8.10;81.50
27940;DHT22;15275;51.716;14.324;2023-03-04T09:35:30;8.10;81.80
27940;DHT22;15275;51.716;14.324;2023-03-04T09:37:57;8.20;82.20
27940;DHT22;15275;51.716;14.324;2023-03-04T09:40:27;8.20;82.30
27940;DHT22;15275;51.716;14.324;2023-03-04T09:43:01;8.30;82.40
27940;DHT22;15275;51.716;14.324;2023-03-04T09:45:42;8.40;82.50
27940;DHT22;15275;51.716;14.324;2023-03-04T09:48:18;8.40;82.20
27940;DHT22;15275;51.716;14.324;2023-03-04T09:56:16;8.50;82.30
27940;DHT22;15275;51.716;14.324;2023-03-04T10:01:52;8.60;82.20
27940;DHT22;15275;51.716;14.324;2023-03-04T10:07:12;8.70;82.20
27940;DHT22;15275;51.716;14.324;2023-03-04T10:09:50;8.70;82.00
27940;DHT22;15275;51.716;14.324;2023-03-04T10:12:21;8.80;82.10
27940;DHT22;15275;51.716;14.324;2023-03-04T10:14:51;8.80;82.20
27940;DHT22;15275;51.716;14.324;2023-03-04T10:20:38;8.90;82.50
27940;DHT22;15275;51.716;14.324;2023-03-04T10:23:17;9.00;82.60
27940;DHT22;15275;51.716;14.324;2023-03-04T10:25:45;9.10;82.50
27940;DHT22;15275;51.716;14.324;2023-03-04T10:28:13;9.20;82.40
27940;DHT22;15275;51.716;14.324;2023-03-04T10:33:33;9.30;81.50
27940;DHT22;15275;51.716;14.324;2023-03-04T10:36:04;9.40;81.80
27940;DHT22;15275;51.716;14.324;2023-03-04T10:38:53;9.40;81.60
27940;DHT22;15275;51.716;14.324;2023-03-04T10:41:23;9.40;81.40
27940;DHT22;15275;51.716;14.324;2023-03-04T10:46:37;9.40;80.70
27940;DHT22;15275;51.716;14.324;2023-03-04T10:49:04;9.40;81.00
27940;DHT22;15275;51.716;14.324;2023-03-04T10:51:30;9.40;81.10
27940;DHT22;15275;51.716;14.324;2023-03-04T10:54:09;9.40;81.20
27940;DHT22;15275;51.716;14.324;2023-03-04T10:57:15;9.40;81.50
27940;DHT22;15275;51.716;14.324;2023-03-04T10:59:54;9.40;81.20
27940;DHT22;15275;51.716;14.324;2023-03-04T11:02:35;9.40;81.80
27940;DHT22;15275;51.716;14.324;2023-03-04T11:07:52;9.50;82.00
27940;DHT22;15275;51.716;14.324;2023-03-04T11:10:25;9.60;81.50
27940;DHT22;15275;51.716;14.324;2023-03-04T11:12:59;9.60;81.90
27940;DHT22;15275;51.716;14.324;2023-03-04T11:15:29;9.70;81.70
27940;DHT22;15275;51.716;14.324;2023-03-04T11:18:11;9.80;81.60
27940;DHT22;15275;51.716;14.324;2023-03-04T11:20:42;9.80;81.40
27940;DHT22;15275;51.716;14.324;2023-03-04T11:23:21;9.90;81.40
27940;DHT22;15275;51.716;14.324;2023-03-04T11:26:01;10.00;81.20
27940;DHT22;15275;51.716;14.324;2023-03-04T11:28:43;10.00;81.00
27940;DHT22;15275;51.716;14.324;2023-03-04T11:31:37;10.10;80.50
27940;DHT22;15275;51.716;14.324;2023-03-04T11:36:54;10.20;79.00
27940;DHT22;15275;51.716;14.324;2023-03-04T11:39:55;10.30;78.20
27940;DHT22;15275;51.716;14.324;2023-03-04T11:43:05;10.30;79.00
27940;DHT22;15275;51.716;14.324;2023-03-04T12:09:24;10.50;78.90
27940;DHT22;15275;51.716;14.324;2023-03-04T12:15:18;10.50;77.60
27940;DHT22;15275;51.716;14.324;2023-03-04T12:40:37;10.60;75.60
27940;DHT22;15275;51.716;14.324;2023-03-04T12:43:24;10.60;74.90
27940;DHT22;15275;51.716;14.324;2023-03-04T12:48:29;10.50;76.00
27940;DHT22;15275;51.716;14.324;2023-03-04T12:51:24;10.50;76.60
27940;DHT22;15275;51.716;14.324;2023-03-04T12:56:55;10.40;75.70
27940;DHT22;15275;51.716;14.324;2023-03-04T12:59:25;10.40;76.40
27940;DHT22;15275;51.716;14.324;2023-03-04T13:05:35;10.40;75.40
27940;DHT22;15275;51.716;14.324;2023-03-04T13:11:01;10.40;75.90
27940;DHT22;15275;51.716;14.324;2023-03-04T13:16:02;10.40;76.40
27940;DHT22;15275;51.716;14.324;2023-03-04T13:18:49;10.40;76.40
27940;DHT22;15275;51.716;14.324;2023-03-04T13:21:24;10.50;76.40
27940;DHT22;15275;51.716;14.324;2023-03-04T13:23:53;10.50;76.00
27940;DHT22;15275;51.716;14.324;2023-03-04T13:26:32;10.50;76.70
27940;DHT22;15275;51.716;14.324;2023-03-04T13:32:10;10.60;75.40
27940;DHT22;15275;51.716;14.324;2023-03-04T13:37:40;10.70;75.40
27940;DHT22;15275;51.716;14.324;2023-03-04T13:42:48;10.70;75.10
27940;DHT22;15275;51.716;14.324;2023-03-04T13:45:34;10.70;74.50
27940;DHT22;15275;51.716;14.324;2023-03-04T13:48:02;10.70;73.10
27940;DHT22;15275;51.716;14.324;2023-03-04T13:50:35;10.70;74.30
27940;DHT22;15275;51.716;14.324;2023-03-04T13:53:30;10.70;74.00
27940;DHT22;15275;51.716;14.324;2023-03-04T14:04:34;10.50;73.10
27940;DHT22;15275;51.716;14.324;2023-03-04T14:07:16;10.50;73.70
27940;DHT22;15275;51.716;14.324;2023-03-04T14:12:56;10.40;72.80
27940;DHT22;15275;51.716;14.324;2023-03-04T14:15:27;10.40;72.80
27940;DHT22;15275;51.716;14.324;2023-03-04T14:18:00;10.40;74.10
27940;DHT22;15275;51.716;14.324;2023-03-04T14:21:09;10.40;73.50
27940;DHT22;15275;51.716;14.324;2023-03-04T14:23:25;10.40;73.50
27940;DHT22;15275;51.716;14.324;2023-03-04T14:26:03;10.50;72.40
27940;DHT22;15275;51.716;14.324;2023-03-04T14:28:48;10.50;72.10
27940;DHT22;15275;51.716;14.324;2023-03-04T14:31:19;10.50;71.80
27940;DHT22;15275;51.716;14.324;2023-03-04T14:33:50;10.50;72.70
27940;DHT22;15275;51.716;14.324;2023-03-04T14:36:21;10.50;72.40
27940;DHT22;15275;51.716;14.324;2023-03-04T14:39:06;10.50;72.20
27940;DHT22;15275;51.716;14.324;2023-03-04T14:41:38;10.50;71.00
27940;DHT22;15275;51.716;14.324;2023-03-04T14:44:33;10.40;71.30
27940;DHT22;15275;51.716;14.324;2023-03-04T14:49:56;10.30;70.60
27940;DHT22;15275;51.716;14.324;2023-03-04T14:55:24;10.20;71.10
27940;DHT22;15275;51.716;14.324;2023-03-04T14:58:09;10.20;70.00
27940;DHT22;15275;51.716;14.324;2023-03-04T15:00:45;10.20;70.60
27940;DHT22;15275;51.716;14.324;2023-03-04T15:03:56;10.20;71.40
27940;DHT22;15275;51.716;14.324;2023-03-04T15:06:25;10.10;69.40
27940;DHT22;15275;51.716;14.324;2023-03-04T15:09:15;10.10;71.90
27940;DHT22;15275;51.716;14.324;2023-03-04T15:12:03;10.10;71.20
27940;DHT22;15275;51.716;14.324;2023-03-04T15:17:36;10.00;71.60
27940;DHT22;15275;51.716;14.324;2023-03-04T15:25:14;10.00;72.50
27940;DHT22;15275;51.716;14.324;2023-03-04T15:27:41;10.00;73.10
27940;DHT22;15275;51.716;14.324;2023-03-04T15:30:27;9.90;73.10
27940;DHT22;15275;51.716;14.324;2023-03-04T15:32:55;9.90;72.30
27940;DHT22;15275;51.716;14.324;2023-03-04T15:35:23;9.90;73.20
27940;DHT22;15275;51.716;14.324;2023-03-04T15:37:50;9.90;73.40
27940;DHT22;15275;51.716;14.324;2023-03-04T15:42:54;9.90;73.00
27940;DHT22;15275;51.716;14.324;2023-03-04T15:45:26;9.90;73.40
27940;DHT22;15275;51.716;14.324;2023-03-04T15:47:54;9.90;73.10
27940;DHT22;15275;51.716;14.324;2023-03-04T15:50:20;9.80;73.30
27940;DHT22;15275;51.716;14.324;2023-03-04T15:52:47;9.80;73.30
27940;DHT22;15275;51.716;14.324;2023-03-04T15:55:17;9.80;73.10
27940;DHT22;15275;51.716;14.324;2023-03-04T15:57:48;9.70;73.20
27940;DHT22;15275;51.716;14.324;2023-03-04T16:00:18;9.70;73.50
27940;DHT22;15275;51.716;14.324;2023-03-04T16:02:44;9.70;73.60
27940;DHT22;15275;51.716;14.324;2023-03-04T16:05:10;9.60;73.40
27940;DHT22;15275;51.716;14.324;2023-03-04T16:07:37;9.60;73.50
27940;DHT22;15275;51.716;14.324;2023-03-04T16:10:28;9.60;73.40
27940;DHT22;15275;51.716;14.324;2023-03-04T16:12:57;9.60;73.20
27940;DHT22;15275;51.716;14.324;2023-03-04T16:15:25;9.50;73.20
27940;DHT22;15275;51.716;14.324;2023-03-04T16:17:53;9.50;73.20
27940;DHT22;15275;51.716;14.324;2023-03-04T16:20:22;9.50;73.10
27940;DHT22;15275;51.716;14.324;2023-03-04T16:22:56;9.40;73.10
27940;DHT22;15275;51.716;14.324;2023-03-04T16:25:24;9.40;72.90
27940;DHT22;15275;51.716;14.324;2023-03-04T16:27:51;9.40;72.80
27940;DHT22;15275;51.716;14.324;2023-03-04T16:30:20;9.40;73.00
27940;DHT22;15275;51.716;14.324;2023-03-04T16:32:49;9.30;72.80
27940;DHT22;15275;51.716;14.324;2023-03-04T16:35:16;9.30;73.00
27940;DHT22;15275;51.716;14.324;2023-03-04T16:37:44;9.30;73.10
27940;DHT22;15275;51.716;14.324;2023-03-04T16:42:42;9.30;72.80
27940;DHT22;15275;51.716;14.324;2023-03-04T16:45:16;9.30;73.00
27940;DHT22;15275;51.716;14.324;2023-03-04T16:47:43;9.20;72.70
27940;DHT22;15275;51.716;14.324;2023-03-04T16:50:20;9.20;73.10
27940;DHT22;15275;51.716;14.324;2023-03-04T16:52:52;9.20;72.50
27940;DHT22;15275;51.716;14.324;2023-03-04T16:55:29;9.20;72.90
27940;DHT22;15275;51.716;14.324;2023-03-04T16:57:56;9.20;72.90
27940;DHT22;15275;51.716;14.324;2023-03-04T17:00:24;9.20;73.00
27940;DHT22;15275;51.716;14.324;2023-03-04T17:02:58;9.20;73.00
27940;DHT22;15275;51.716;14.324;2023-03-04T17:05:27;9.20;72.90
27940;DHT22;15275;51.716;14.324;2023-03-04T17:07:54;9.20;72.90
27940;DHT22;15275;51.716;14.324;2023-03-04T17:10:21;9.20;73.00
27940;DHT22;15275;51.716;14.324;2023-03-04T17:12:48;9.20;73.00
27940;DHT22;15275;51.716;14.324;2023-03-04T17:15:15;9.20;73.20
27940;DHT22;15275;51.716;14.324;2023-03-04T17:17:42;9.20;73.00
27940;DHT22;15275;51.716;14.324;2023-03-04T17:20:10;9.10;73.10
27940;DHT22;15275;51.716;14.324;2023-03-04T17:22:39;9.10;73.10
27940;DHT22;15275;51.716;14.324;2023-03-04T17:25:05;9.10;73.20
27940;DHT22;15275;51.716;14.324;2023-03-04T17:27:31;9.10;73.20
27940;DHT22;15275;51.716;14.324;2023-03-04T17:29:57;9.10;73.30
27940;DHT22;15275;51.716;14.324;2023-03-04T17:32:23;9.00;73.40
27940;DHT22;15275;51.716;14.324;2023-03-04T17:34:56;9.00;73.40
27940;DHT22;15275;51.716;14.324;2023-03-04T17:37:22;9.00;73.50
27940;DHT22;15275;51.716;14.324;2023-03-04T17:39:47;9.00;73.40
27940;DHT22;15275;51.716;14.324;2023-03-04T17:42:13;9.00;73.30
27940;DHT22;15275;51.716;14.324;2023-03-04T17:44:39;8.90;73.50
27940;DHT22;15275;51.716;14.324;2023-03-04T17:47:05;8.90;73.50
27940;DHT22;15275;51.716;14.324;2023-03-04T17:49:31;8.90;73.50
27940;DHT22;15275;51.716;14.324;2023-03-04T17:51:59;8.90;73.40
27940;DHT22;15275;51.716;14.324;2023-03-04T17:54:26;8.90;73.70
27940;DHT22;15275;51.716;14.324;2023-03-04T17:56:52;8.90;73.60